sensor_id;sensor_type;location;lat;lon;timestamp;noise_LAeq;noise_LA_min;noise_LA_max;noise_LA01;noise_LA95
64996;Laerm;51545;51.568;6.998;2023-07-08T00:00:00;36.29;31.48;52.04;;
64996;Laerm;51545;51.568;6.998;2023-07-08T00:02:30;37.69;33.62;54.18;;
64996;Laerm;51545;51.568;6.998;2023-07-08T00:04:55;36.30;32.38;55.50;;
64996;Laerm;51545;51.568;6.998;2023-07-08T00:07:21;36.07;31.56;46.58;;
64996;Laerm;51545;51.568;6.998;2023-07-08T00:09:47;36.56;31.86;51.31;;
64996;Laerm;51545;51.568;6.998;2023-07-08T00:12:12;35.56;32.26;50.52;;
64996;Laerm;51545;51.568;6.998;2023-07-08T00:14:38;35.87;31.90;43.56;;
64996;Laerm;51545;51.568;6.998;2023-07-08T00:17:10;43.03;32.28;63.19;;
64996;Laerm;51545;51.568;6.998;2023-07-08T00:19:36;36.25;31.62;47.19;;
64996;Laerm;51545;51.568;6.998;2023-07-08T00:22:01;34.58;30.64;39.58;;
64996;Laerm;51545;51.568;6.998;2023-07-08T00:24:27;35.38;31.35;45.86;;
64996;Laerm;51545;51.568;6.998;2023-07-08T00:26:52;34.76;30.89;38.84;;
64996;Laerm;51545;51.568;6.998;2023-07-08T00:29:18;34.46;31.16;38.98;;
64996;Laerm;51545;51.568;6.998;2023-07-08T00:31:44;35.23;31.41;43.06;;
64996;Laerm;51545;51.568;6.998;2023-07-08T00:34:09;34.33;30.95;42.92;;
64996;Laerm;51545;51.568;6.998;2023-07-08T00:36:35;34.58;31.00;46.65;;
64996;Laerm;51545;51.568;6.998;2023-07-08T00:39:00;34.93;30.44;41.75;;
64996;Laerm;51545;51.568;6.998;2023-07-08T00:41:37;34.44;30.24;41.84;;
64996;Laerm;51545;51.568;6.998;2023-07-08T00:44:05;35.78;32.32;39.43;;
64996;Laerm;51545;51.568;6.998;2023-07-08T00:49:05;35.23;31.18;39.66;;
64996;Laerm;51545;51.568;6.998;2023-07-08T00:51:38;33.80;29.80;38.12;;
64996;Laerm;51545;51.568;6.998;2023-07-08T00:54:08;33.68;30.17;40.30;;
64996;Laerm;51545;51.568;6.998;2023-07-08T00:56:40;32.94;30.30;36.04;;
64996;Laerm;51545;51.568;6.998;2023-07-08T00:59:10;35.23;31.25;45.26;;
64996;Laerm;51545;51.568;6.998;2023-07-08T01:01:40;34.36;31.37;39.68;;
64996;Laerm;51545;51.568;6.998;2023-07-08T01:04:11;35.88;31.19;46.48;;
64996;Laerm;51545;51.568;6.998;2023-07-08T01:06:41;34.30;30.25;42.90;;
64996;Laerm;51545;51.568;6.998;2023-07-08T01:09:11;34.86;31.21;43.74;;
64996;Laerm;51545;51.568;6.998;2023-07-08T01:11:39;35.56;31.99;45.44;;
64996;Laerm;51545;51.568;6.998;2023-07-08T01:14:07;34.47;30.57;45.58;;
64996;Laerm;51545;51.568;6.998;2023-07-08T01:16:35;34.27;29.97;46.44;;
64996;Laerm;51545;51.568;6.998;2023-07-08T01:19:01;35.29;31.68;45.07;;
64996;Laerm;51545;51.568;6.998;2023-07-08T01:23:56;35.09;30.10;45.38;;
64996;Laerm;51545;51.568;6.998;2023-07-08T01:26:23;34.50;30.55;40.40;;
64996;Laerm;51545;51.568;6.998;2023-07-08T01:28:50;34.85;31.07;42.36;;
64996;Laerm;51545;51.568;6.998;2023-07-08T01:31:16;34.11;29.58;38.49;;
64996;Laerm;51545;51.568;6.998;2023-07-08T01:33:42;35.28;31.68;41.64;;
64996;Laerm;51545;51.568;6.998;2023-07-08T01:36:10;35.94;31.82;41.60;;
64996;Laerm;51545;51.568;6.998;2023-07-08T01:38:36;33.86;30.54;39.00;;
64996;Laerm;51545;51.568;6.998;2023-07-08T01:41:03;35.17;30.71;43.76;;
64996;Laerm;51545;51.568;6.998;2023-07-08T01:43:29;33.48;30.47;41.75;;
64996;Laerm;51545;51.568;6.998;2023-07-08T01:45:55;34.65;30.03;50.02;;
64996;Laerm;51545;51.568;6.998;2023-07-08T01:48:24;45.01;30.64;74.23;;
64996;Laerm;51545;51.568;6.998;2023-07-08T01:50:56;35.02;30.56;44.76;;
64996;Laerm;51545;51.568;6.998;2023-07-08T01:53:29;34.19;29.89;43.32;;
64996;Laerm;51545;51.568;6.998;2023-07-08T01:55:55;34.35;29.65;41.04;;
64996;Laerm;51545;51.568;6.998;2023-07-08T01:58:20;35.53;31.13;43.52;;
64996;Laerm;51545;51.568;6.998;2023-07-08T02:00:46;35.37;31.51;42.19;;
64996;Laerm;51545;51.568;6.998;2023-07-08T02:03:14;34.66;31.29;41.03;;
64996;Laerm;51545;51.568;6.998;2023-07-08T02:05:40;34.41;31.24;46.01;;
64996;Laerm;51545;51.568;6.998;2023-07-08T02:08:05;34.85;31.21;42.44;;
64996;Laerm;51545;51.568;6.998;2023-07-08T02:10:31;34.70;30.54;41.72;;
64996;Laerm;51545;51.568;6.998;2023-07-08T02:12:56;34.74;30.81;38.81;;
64996;Laerm;51545;51.568;6.998;2023-07-08T02:15:22;35.16;31.83;43.90;;
64996;Laerm;51545;51.568;6.998;2023-07-08T02:17:47;34.91;30.42;39.92;;
64996;Laerm;51545;51.568;6.998;2023-07-08T02:20:14;34.14;30.31;41.38;;
64996;Laerm;51545;51.568;6.998;2023-07-08T02:22:39;35.21;31.59;42.97;;
64996;Laerm;51545;51.568;6.998;2023-07-08T02:25:05;37.31;32.79;48.54;;
64996;Laerm;51545;51.568;6.998;2023-07-08T02:27:30;37.26;32.88;51.00;;
64996;Laerm;51545;51.568;6.998;2023-07-08T02:29:56;39.85;32.28;54.69;;
64996;Laerm;51545;51.568;6.998;2023-07-08T02:32:21;41.77;31.76;57.55;;
64996;Laerm;51545;51.568;6.998;2023-07-08T02:34:47;47.89;33.12;66.72;;
64996;Laerm;51545;51.568;6.998;2023-07-08T02:37:12;53.44;33.55;69.68;;
64996;Laerm;51545;51.568;6.998;2023-07-08T02:39:38;52.74;33.33;68.44;;
64996;Laerm;51545;51.568;6.998;2023-07-08T02:42:03;47.51;32.93;67.47;;
64996;Laerm;51545;51.568;6.998;2023-07-08T02:44:29;45.81;32.45;62.91;;
64996;Laerm;51545;51.568;6.998;2023-07-08T02:46:54;43.11;31.95;61.57;;
64996;Laerm;51545;51.568;6.998;2023-07-08T02:49:20;41.73;31.70;61.82;;
64996;Laerm;51545;51.568;6.998;2023-07-08T02:51:45;46.22;34.02;62.47;;
64996;Laerm;51545;51.568;6.998;2023-07-08T02:54:11;39.19;32.38;57.66;;
64996;Laerm;51545;51.568;6.998;2023-07-08T02:56:36;42.11;34.06;58.14;;
64996;Laerm;51545;51.568;6.998;2023-07-08T02:59:01;44.99;32.87;62.56;;
64996;Laerm;51545;51.568;6.998;2023-07-08T03:01:27;37.08;33.24;50.37;;
64996;Laerm;51545;51.568;6.998;2023-07-08T03:03:52;38.52;33.75;55.02;;
64996;Laerm;51545;51.568;6.998;2023-07-08T03:06:22;40.44;33.63;66.90;;
64996;Laerm;51545;51.568;6.998;2023-07-08T03:08:48;38.70;33.68;57.88;;
64996;Laerm;51545;51.568;6.998;2023-07-08T03:11:13;36.96;33.35;44.33;;
64996;Laerm;51545;51.568;6.998;2023-07-08T03:13:39;37.23;33.79;46.42;;
64996;Laerm;51545;51.568;6.998;2023-07-08T03:16:04;38.20;33.14;53.19;;
64996;Laerm;51545;51.568;6.998;2023-07-08T03:18:38;38.10;34.21;46.07;;
64996;Laerm;51545;51.568;6.998;2023-07-08T03:21:12;39.40;35.07;52.01;;
64996;Laerm;51545;51.568;6.998;2023-07-08T03:23:38;39.75;34.82;52.43;;
64996;Laerm;51545;51.568;6.998;2023-07-08T03:26:04;38.46;34.31;61.79;;
64996;Laerm;51545;51.568;6.998;2023-07-08T03:28:29;38.69;34.21;53.04;;
64996;Laerm;51545;51.568;6.998;2023-07-08T03:30:55;40.06;34.71;53.96;;
64996;Laerm;51545;51.568;6.998;2023-07-08T03:33:20;41.01;35.89;54.47;;
64996;Laerm;51545;51.568;6.998;2023-07-08T03:35:46;39.59;35.41;50.67;;
64996;Laerm;51545;51.568;6.998;2023-07-08T03:38:12;41.51;36.68;63.37;;
64996;Laerm;51545;51.568;6.998;2023-07-08T03:40:37;41.42;36.64;52.39;;
64996;Laerm;51545;51.568;6.998;2023-07-08T03:43:03;40.41;36.05;53.86;;
64996;Laerm;51545;51.568;6.998;2023-07-08T03:45:28;39.97;36.31;54.15;;
64996;Laerm;51545;51.568;6.998;2023-07-08T03:47:53;44.11;36.61;60.75;;
64996;Laerm;51545;51.568;6.998;2023-07-08T03:50:21;39.61;34.56;50.92;;
64996;Laerm;51545;51.568;6.998;2023-07-08T03:52:48;41.39;36.20;51.02;;
64996;Laerm;51545;51.568;6.998;2023-07-08T03:55:14;41.82;36.15;55.43;;
64996;Laerm;51545;51.568;6.998;2023-07-08T03:57:40;40.76;36.54;56.16;;
64996;Laerm;51545;51.568;6.998;2023-07-08T04:00:06;39.95;35.97;49.52;;
64996;Laerm;51545;51.568;6.998;2023-07-08T04:02:44;40.17;36.32;47.49;;
64996;Laerm;51545;51.568;6.998;2023-07-08T04:05:15;40.65;35.30;53.09;;
64996;Laerm;51545;51.568;6.998;2023-07-08T04:07:41;45.16;34.24;68.31;;
64996;Laerm;51545;51.568;6.998;2023-07-08T04:10:08;38.65;34.41;52.28;;
64996;Laerm;51545;51.568;6.998;2023-07-08T04:12:33;40.44;35.50;53.88;;
64996;Laerm;51545;51.568;6.998;2023-07-08T04:14:59;45.94;35.43;61.17;;
64996;Laerm;51545;51.568;6.998;2023-07-08T04:17:24;45.29;35.42;60.23;;
64996;Laerm;51545;51.568;6.998;2023-07-08T04:19:50;45.04;35.99;60.98;;
64996;Laerm;51545;51.568;6.998;2023-07-08T04:22:15;45.65;36.51;60.57;;
64996;Laerm;51545;51.568;6.998;2023-07-08T04:24:41;43.68;34.48;60.16;;
64996;Laerm;51545;51.568;6.998;2023-07-08T04:27:17;44.67;35.29;60.94;;
64996;Laerm;51545;51.568;6.998;2023-07-08T04:29:44;40.62;35.29;55.07;;
64996;Laerm;51545;51.568;6.998;2023-07-08T04:32:10;38.91;34.82;51.01;;
64996;Laerm;51545;51.568;6.998;2023-07-08T04:34:35;39.77;35.41;51.95;;
64996;Laerm;51545;51.568;6.998;2023-07-08T04:37:01;39.00;34.31;50.78;;
64996;Laerm;51545;51.568;6.998;2023-07-08T04:39:26;40.03;36.26;53.93;;
64996;Laerm;51545;51.568;6.998;2023-07-08T04:41:52;40.58;36.65;63.70;;
64996;Laerm;51545;51.568;6.998;2023-07-08T04:44:17;40.55;35.76;56.81;;
64996;Laerm;51545;51.568;6.998;2023-07-08T04:46:50;39.99;36.26;54.37;;
64996;Laerm;51545;51.568;6.998;2023-07-08T04:49:18;42.95;35.44;64.43;;
64996;Laerm;51545;51.568;6.998;2023-07-08T04:51:44;39.58;36.14;47.41;;
64996;Laerm;51545;51.568;6.998;2023-07-08T04:54:10;40.73;36.52;46.72;;
64996;Laerm;51545;51.568;6.998;2023-07-08T04:56:41;40.58;36.38;50.98;;
64996;Laerm;51545;51.568;6.998;2023-07-08T04:59:11;40.99;37.30;49.54;;
64996;Laerm;51545;51.568;6.998;2023-07-08T05:01:38;40.62;35.82;54.40;;
64996;Laerm;51545;51.568;6.998;2023-07-08T05:04:04;39.99;35.91;47.26;;
64996;Laerm;51545;51.568;6.998;2023-07-08T05:06:34;41.29;35.04;58.01;;
64996;Laerm;51545;51.568;6.998;2023-07-08T05:09:00;39.74;35.97;52.09;;
64996;Laerm;51545;51.568;6.998;2023-07-08T05:11:26;40.32;36.35;51.06;;
64996;Laerm;51545;51.568;6.998;2023-07-08T05:13:52;40.34;35.51;52.33;;
64996;Laerm;51545;51.568;6.998;2023-07-08T05:16:17;42.03;36.43;58.53;;
64996;Laerm;51545;51.568;6.998;2023-07-08T05:18:43;40.80;35.78;56.22;;
64996;Laerm;51545;51.568;6.998;2023-07-08T05:21:09;40.37;36.12;53.68;;
64996;Laerm;51545;51.568;6.998;2023-07-08T05:23:34;40.80;35.95;50.04;;
64996;Laerm;51545;51.568;6.998;2023-07-08T05:26:01;40.48;36.86;56.09;;
64996;Laerm;51545;51.568;6.998;2023-07-08T05:28:27;41.27;36.81;53.66;;
64996;Laerm;51545;51.568;6.998;2023-07-08T05:30:54;41.03;35.85;57.49;;
64996;Laerm;51545;51.568;6.998;2023-07-08T05:33:21;41.62;35.75;61.38;;
64996;Laerm;51545;51.568;6.998;2023-07-08T05:35:47;43.39;36.60;61.52;;
64996;Laerm;51545;51.568;6.998;2023-07-08T05:38:12;39.91;35.84;52.32;;
64996;Laerm;51545;51.568;6.998;2023-07-08T05:40:38;45.12;37.07;67.97;;
64996;Laerm;51545;51.568;6.998;2023-07-08T05:43:03;45.53;35.55;63.55;;
64996;Laerm;51545;51.568;6.998;2023-07-08T05:45:29;45.94;35.13;61.49;;
64996;Laerm;51545;51.568;6.998;2023-07-08T05:47:55;40.67;34.39;54.81;;
64996;Laerm;51545;51.568;6.998;2023-07-08T05:50:21;40.27;34.37;58.85;;
64996;Laerm;51545;51.568;6.998;2023-07-08T05:52:46;41.56;36.12;53.45;;
64996;Laerm;51545;51.568;6.998;2023-07-08T05:55:11;42.52;35.44;57.99;;
64996;Laerm;51545;51.568;6.998;2023-07-08T05:57:37;46.54;35.89;57.84;;
64996;Laerm;51545;51.568;6.998;2023-07-08T06:00:04;51.83;36.12;61.82;;
64996;Laerm;51545;51.568;6.998;2023-07-08T06:02:30;43.42;36.34;57.46;;
64996;Laerm;51545;51.568;6.998;2023-07-08T06:04:55;46.77;36.53;69.49;;
64996;Laerm;51545;51.568;6.998;2023-07-08T06:07:21;46.22;37.96;64.16;;
64996;Laerm;51545;51.568;6.998;2023-07-08T06:09:46;43.03;35.91;58.93;;
64996;Laerm;51545;51.568;6.998;2023-07-08T06:12:12;41.11;37.64;56.68;;
64996;Laerm;51545;51.568;6.998;2023-07-08T06:14:37;42.28;37.61;60.14;;
64996;Laerm;51545;51.568;6.998;2023-07-08T06:17:04;40.18;35.59;44.98;;
64996;Laerm;51545;51.568;6.998;2023-07-08T06:19:30;40.85;35.48;52.03;;
64996;Laerm;51545;51.568;6.998;2023-07-08T06:21:55;39.67;35.64;48.49;;
64996;Laerm;51545;51.568;6.998;2023-07-08T06:24:21;40.31;36.42;48.25;;
64996;Laerm;51545;51.568;6.998;2023-07-08T06:26:46;44.98;35.92;63.15;;
64996;Laerm;51545;51.568;6.998;2023-07-08T06:29:12;42.42;36.62;58.41;;
64996;Laerm;51545;51.568;6.998;2023-07-08T06:31:37;42.33;35.85;59.58;;
64996;Laerm;51545;51.568;6.998;2023-07-08T06:34:03;41.06;36.92;54.03;;
64996;Laerm;51545;51.568;6.998;2023-07-08T06:36:30;42.09;36.48;62.37;;
64996;Laerm;51545;51.568;6.998;2023-07-08T06:38:55;40.41;35.55;57.43;;
64996;Laerm;51545;51.568;6.998;2023-07-08T06:41:21;40.87;36.25;55.16;;
64996;Laerm;51545;51.568;6.998;2023-07-08T06:43:46;41.23;36.42;51.88;;
64996;Laerm;51545;51.568;6.998;2023-07-08T06:46:12;41.10;36.30;50.89;;
64996;Laerm;51545;51.568;6.998;2023-07-08T06:48:38;43.37;37.07;55.06;;
64996;Laerm;51545;51.568;6.998;2023-07-08T06:51:03;42.10;36.29;54.95;;
64996;Laerm;51545;51.568;6.998;2023-07-08T06:53:29;40.18;35.20;51.11;;
64996;Laerm;51545;51.568;6.998;2023-07-08T06:55:54;38.69;34.81;54.56;;
64996;Laerm;51545;51.568;6.998;2023-07-08T06:58:20;41.61;34.75;63.34;;
64996;Laerm;51545;51.568;6.998;2023-07-08T07:00:45;40.18;34.93;58.84;;
64996;Laerm;51545;51.568;6.998;2023-07-08T07:03:11;40.38;34.97;57.04;;
64996;Laerm;51545;51.568;6.998;2023-07-08T07:05:38;40.12;34.67;49.59;;
64996;Laerm;51545;51.568;6.998;2023-07-08T07:08:05;39.49;34.84;48.40;;
64996;Laerm;51545;51.568;6.998;2023-07-08T07:10:33;40.55;35.49;53.02;;
64996;Laerm;51545;51.568;6.998;2023-07-08T07:13:01;41.39;35.89;53.27;;
64996;Laerm;51545;51.568;6.998;2023-07-08T07:15:29;40.68;34.91;57.07;;
64996;Laerm;51545;51.568;6.998;2023-07-08T07:17:57;39.29;35.46;47.00;;
64996;Laerm;51545;51.568;6.998;2023-07-08T07:20:25;39.93;35.03;49.48;;
64996;Laerm;51545;51.568;6.998;2023-07-08T07:22:53;46.40;34.98;65.84;;
64996;Laerm;51545;51.568;6.998;2023-07-08T07:25:20;41.51;35.35;55.54;;
64996;Laerm;51545;51.568;6.998;2023-07-08T07:27:50;39.82;35.15;57.70;;
64996;Laerm;51545;51.568;6.998;2023-07-08T07:30:20;46.39;35.94;58.81;;
64996;Laerm;51545;51.568;6.998;2023-07-08T07:32:50;40.36;35.88;49.09;;
64996;Laerm;51545;51.568;6.998;2023-07-08T07:35:21;39.81;35.35;50.10;;
64996;Laerm;51545;51.568;6.998;2023-07-08T07:37:48;39.23;35.63;52.32;;
64996;Laerm;51545;51.568;6.998;2023-07-08T07:40:14;39.75;34.19;49.71;;
64996;Laerm;51545;51.568;6.998;2023-07-08T07:42:44;40.36;35.80;50.19;;
64996;Laerm;51545;51.568;6.998;2023-07-08T07:45:13;39.62;35.36;55.41;;
64996;Laerm;51545;51.568;6.998;2023-07-08T07:47:43;40.11;35.25;56.25;;
64996;Laerm;51545;51.568;6.998;2023-07-08T07:50:14;39.37;34.72;52.82;;
64996;Laerm;51545;51.568;6.998;2023-07-08T07:53:02;46.24;34.94;67.57;;
64996;Laerm;51545;51.568;6.998;2023-07-08T07:55:33;41.54;35.29;57.46;;
64996;Laerm;51545;51.568;6.998;2023-07-08T07:58:00;42.40;35.73;54.47;;
64996;Laerm;51545;51.568;6.998;2023-07-08T08:00:31;42.24;35.40;57.93;;
64996;Laerm;51545;51.568;6.998;2023-07-08T08:02:58;38.69;35.18;54.11;;
64996;Laerm;51545;51.568;6.998;2023-07-08T08:05:27;38.39;34.40;46.26;;
64996;Laerm;51545;51.568;6.998;2023-07-08T08:07:55;41.08;35.77;64.25;;
64996;Laerm;51545;51.568;6.998;2023-07-08T08:10:23;42.76;35.77;68.70;;
64996;Laerm;51545;51.568;6.998;2023-07-08T08:12:50;40.46;35.05;62.55;;
64996;Laerm;51545;51.568;6.998;2023-07-08T08:15:19;39.09;34.73;52.37;;
64996;Laerm;51545;51.568;6.998;2023-07-08T08:17:46;43.12;34.64;63.00;;
64996;Laerm;51545;51.568;6.998;2023-07-08T08:20:15;43.22;35.40;59.43;;
64996;Laerm;51545;51.568;6.998;2023-07-08T08:22:43;40.19;35.51;55.92;;
64996;Laerm;51545;51.568;6.998;2023-07-08T08:25:10;43.38;34.54;67.85;;
64996;Laerm;51545;51.568;6.998;2023-07-08T08:27:36;39.83;35.13;66.31;;
64996;Laerm;51545;51.568;6.998;2023-07-08T08:30:05;39.55;35.37;52.41;;
64996;Laerm;51545;51.568;6.998;2023-07-08T08:32:32;39.57;35.03;47.76;;
64996;Laerm;51545;51.568;6.998;2023-07-08T08:34:59;42.69;36.07;55.54;;
64996;Laerm;51545;51.568;6.998;2023-07-08T08:37:25;38.45;34.72;53.58;;
64996;Laerm;51545;51.568;6.998;2023-07-08T08:39:52;38.19;34.50;51.86;;
64996;Laerm;51545;51.568;6.998;2023-07-08T08:42:28;50.32;34.52;77.78;;
64996;Laerm;51545;51.568;6.998;2023-07-08T08:44:58;40.55;34.74;56.39;;
64996;Laerm;51545;51.568;6.998;2023-07-08T08:50:03;38.25;34.59;45.19;;
64996;Laerm;51545;51.568;6.998;2023-07-08T08:52:35;41.65;34.67;59.75;;
64996;Laerm;51545;51.568;6.998;2023-07-08T08:55:04;40.33;35.08;65.22;;
64996;Laerm;51545;51.568;6.998;2023-07-08T08:57:41;41.65;34.52;54.35;;
64996;Laerm;51545;51.568;6.998;2023-07-08T09:00:16;37.48;33.73;54.97;;
64996;Laerm;51545;51.568;6.998;2023-07-08T09:03:14;39.74;33.33;59.89;;
64996;Laerm;51545;51.568;6.998;2023-07-08T09:05:43;38.72;33.08;52.83;;
64996;Laerm;51545;51.568;6.998;2023-07-08T09:08:31;38.11;33.73;52.92;;
64996;Laerm;51545;51.568;6.998;2023-07-08T09:13:36;37.74;33.69;50.33;;
64996;Laerm;51545;51.568;6.998;2023-07-08T09:16:43;39.46;33.51;49.01;;
64996;Laerm;51545;51.568;6.998;2023-07-08T09:19:18;38.94;32.66;55.93;;
64996;Laerm;51545;51.568;6.998;2023-07-08T09:24:26;37.34;34.08;47.57;;
64996;Laerm;51545;51.568;6.998;2023-07-08T09:26:55;38.63;33.99;49.07;;
64996;Laerm;51545;51.568;6.998;2023-07-08T09:29:24;42.01;32.28;64.66;;
64996;Laerm;51545;51.568;6.998;2023-07-08T09:31:50;38.40;33.88;62.25;;
64996;Laerm;51545;51.568;6.998;2023-07-08T09:34:20;37.20;33.75;41.86;;
64996;Laerm;51545;51.568;6.998;2023-07-08T09:36:49;39.07;34.28;51.60;;
64996;Laerm;51545;51.568;6.998;2023-07-08T09:39:18;42.50;35.03;63.51;;
64996;Laerm;51545;51.568;6.998;2023-07-08T09:41:46;43.72;35.31;63.61;;
64996;Laerm;51545;51.568;6.998;2023-07-08T09:44:26;42.47;35.12;60.55;;
64996;Laerm;51545;51.568;6.998;2023-07-08T09:46:55;41.77;33.90;59.07;;
64996;Laerm;51545;51.568;6.998;2023-07-08T09:49:31;44.46;34.54;70.99;;
64996;Laerm;51545;51.568;6.998;2023-07-08T09:51:58;37.93;34.24;53.82;;
64996;Laerm;51545;51.568;6.998;2023-07-08T09:54:25;47.77;34.85;68.79;;
64996;Laerm;51545;51.568;6.998;2023-07-08T09:57:05;51.15;34.12;68.30;;
64996;Laerm;51545;51.568;6.998;2023-07-08T09:59:51;42.24;33.54;69.37;;
64996;Laerm;51545;51.568;6.998;2023-07-08T10:05:33;39.88;34.06;53.17;;
64996;Laerm;51545;51.568;6.998;2023-07-08T10:11:27;38.41;33.78;51.64;;
64996;Laerm;51545;51.568;6.998;2023-07-08T10:14:05;39.98;35.59;57.10;;
64996;Laerm;51545;51.568;6.998;2023-07-08T10:16:36;41.72;34.34;58.62;;
64996;Laerm;51545;51.568;6.998;2023-07-08T10:19:04;37.10;33.53;44.71;;
64996;Laerm;51545;51.568;6.998;2023-07-08T10:21:59;37.62;33.84;50.60;;
64996;Laerm;51545;51.568;6.998;2023-07-08T10:30:25;36.88;33.21;50.61;;
64996;Laerm;51545;51.568;6.998;2023-07-08T10:33:25;37.25;33.50;49.41;;
64996;Laerm;51545;51.568;6.998;2023-07-08T10:38:51;37.25;33.01;45.76;;
64996;Laerm;51545;51.568;6.998;2023-07-08T10:41:34;37.64;32.96;55.36;;
64996;Laerm;51545;51.568;6.998;2023-07-08T10:44:09;37.79;33.39;54.11;;
64996;Laerm;51545;51.568;6.998;2023-07-08T10:46:45;37.46;33.67;42.97;;
64996;Laerm;51545;51.568;6.998;2023-07-08T10:49:58;37.31;33.31;48.95;;
64996;Laerm;51545;51.568;6.998;2023-07-08T10:58:01;38.54;33.46;51.17;;
64996;Laerm;51545;51.568;6.998;2023-07-08T11:05:59;50.49;33.24;73.14;;
64996;Laerm;51545;51.568;6.998;2023-07-08T11:08:31;40.93;34.69;56.47;;
64996;Laerm;51545;51.568;6.998;2023-07-08T11:14:12;38.60;32.52;51.69;;
64996;Laerm;51545;51.568;6.998;2023-07-08T11:20:17;39.40;32.17;57.58;;
64996;Laerm;51545;51.568;6.998;2023-07-08T11:23:10;43.22;32.20;68.81;;
64996;Laerm;51545;51.568;6.998;2023-07-08T11:25:45;40.21;33.46;60.96;;
64996;Laerm;51545;51.568;6.998;2023-07-08T11:28:18;37.62;31.80;46.39;;
64996;Laerm;51545;51.568;6.998;2023-07-08T11:30:47;36.72;31.16;52.68;;
64996;Laerm;51545;51.568;6.998;2023-07-08T11:33:21;38.16;34.21;48.08;;
64996;Laerm;51545;51.568;6.998;2023-07-08T11:35:52;37.97;31.59;55.76;;
64996;Laerm;51545;51.568;6.998;2023-07-08T11:38:21;37.53;33.43;49.28;;
64996;Laerm;51545;51.568;6.998;2023-07-08T11:43:34;37.70;32.47;51.43;;
64996;Laerm;51545;51.568;6.998;2023-07-08T11:46:05;42.69;34.31;61.66;;
64996;Laerm;51545;51.568;6.998;2023-07-08T11:48:39;52.66;33.72;81.21;;
64996;Laerm;51545;51.568;6.998;2023-07-08T11:51:09;43.22;33.09;63.90;;
64996;Laerm;51545;51.568;6.998;2023-07-08T11:53:47;43.80;32.25;68.04;;
64996;Laerm;51545;51.568;6.998;2023-07-08T12:03:47;40.61;33.43;59.51;;
64996;Laerm;51545;51.568;6.998;2023-07-08T12:08:58;38.55;32.46;58.40;;
64996;Laerm;51545;51.568;6.998;2023-07-08T12:11:32;37.66;33.02;54.00;;
64996;Laerm;51545;51.568;6.998;2023-07-08T12:14:02;40.14;33.98;54.87;;
64996;Laerm;51545;51.568;6.998;2023-07-08T12:16:29;45.31;32.60;68.90;;
64996;Laerm;51545;51.568;6.998;2023-07-08T12:18:57;42.31;34.43;68.22;;
64996;Laerm;51545;51.568;6.998;2023-07-08T12:21:26;42.01;33.92;70.55;;
64996;Laerm;51545;51.568;6.998;2023-07-08T12:23:53;44.70;33.46;69.15;;
64996;Laerm;51545;51.568;6.998;2023-07-08T12:26:18;39.14;33.72;58.73;;
64996;Laerm;51545;51.568;6.998;2023-07-08T12:28:44;44.15;32.35;70.48;;
64996;Laerm;51545;51.568;6.998;2023-07-08T12:31:15;41.08;33.69;71.30;;
64996;Laerm;51545;51.568;6.998;2023-07-08T12:33:41;41.48;33.60;63.73;;
64996;Laerm;51545;51.568;6.998;2023-07-08T12:36:10;38.36;31.44;61.94;;
64996;Laerm;51545;51.568;6.998;2023-07-08T12:38:40;37.12;32.04;57.28;;
64996;Laerm;51545;51.568;6.998;2023-07-08T12:41:16;46.40;33.14;67.05;;
64996;Laerm;51545;51.568;6.998;2023-07-08T12:43:43;40.82;32.42;65.64;;
64996;Laerm;51545;51.568;6.998;2023-07-08T12:46:13;40.47;32.34;63.29;;
64996;Laerm;51545;51.568;6.998;2023-07-08T12:48:39;37.62;33.29;47.67;;
64996;Laerm;51545;51.568;6.998;2023-07-08T12:51:09;39.27;32.96;64.20;;
64996;Laerm;51545;51.568;6.998;2023-07-08T12:53:36;43.75;35.99;67.57;;
64996;Laerm;51545;51.568;6.998;2023-07-08T12:56:02;43.11;35.04;72.50;;
64996;Laerm;51545;51.568;6.998;2023-07-08T12:58:31;43.44;32.45;70.65;;
64996;Laerm;51545;51.568;6.998;2023-07-08T13:01:00;43.14;32.66;72.63;;
64996;Laerm;51545;51.568;6.998;2023-07-08T13:03:28;41.78;33.38;67.59;;
64996;Laerm;51545;51.568;6.998;2023-07-08T13:05:56;39.65;32.16;66.84;;
64996;Laerm;51545;51.568;6.998;2023-07-08T13:08:23;50.26;33.35;82.01;;
64996;Laerm;51545;51.568;6.998;2023-07-08T13:10:56;42.62;32.99;67.59;;
64996;Laerm;51545;51.568;6.998;2023-07-08T13:13:28;40.33;34.72;68.79;;
64996;Laerm;51545;51.568;6.998;2023-07-08T13:15:55;42.87;34.27;71.99;;
64996;Laerm;51545;51.568;6.998;2023-07-08T13:18:31;42.00;34.10;68.64;;
64996;Laerm;51545;51.568;6.998;2023-07-08T13:20:58;40.71;34.84;61.50;;
64996;Laerm;51545;51.568;6.998;2023-07-08T13:23:24;39.36;34.66;48.94;;
64996;Laerm;51545;51.568;6.998;2023-07-08T13:25:52;37.77;33.02;53.14;;
64996;Laerm;51545;51.568;6.998;2023-07-08T13:30:54;44.01;33.98;71.01;;
64996;Laerm;51545;51.568;6.998;2023-07-08T13:33:21;46.50;39.38;71.22;;
64996;Laerm;51545;51.568;6.998;2023-07-08T13:35:47;49.87;39.37;72.05;;
64996;Laerm;51545;51.568;6.998;2023-07-08T13:38:24;46.35;38.92;59.79;;
64996;Laerm;51545;51.568;6.998;2023-07-08T13:40:58;48.99;40.99;70.16;;
64996;Laerm;51545;51.568;6.998;2023-07-08T13:43:39;51.32;42.46;72.86;;
64996;Laerm;51545;51.568;6.998;2023-07-08T13:46:33;48.39;41.81;68.78;;
64996;Laerm;51545;51.568;6.998;2023-07-08T13:49:01;47.13;40.71;64.06;;
64996;Laerm;51545;51.568;6.998;2023-07-08T13:51:31;49.94;39.15;75.41;;
64996;Laerm;51545;51.568;6.998;2023-07-08T13:54:00;49.84;38.67;75.24;;
64996;Laerm;51545;51.568;6.998;2023-07-08T13:56:30;59.24;37.91;84.10;;
64996;Laerm;51545;51.568;6.998;2023-07-08T13:59:08;46.71;34.30;61.41;;
64996;Laerm;51545;51.568;6.998;2023-07-08T14:01:37;48.43;35.72;60.71;;
64996;Laerm;51545;51.568;6.998;2023-07-08T14:04:04;46.60;34.30;54.24;;
64996;Laerm;51545;51.568;6.998;2023-07-08T14:06:32;47.86;34.57;62.88;;
64996;Laerm;51545;51.568;6.998;2023-07-08T14:09:07;45.62;33.95;59.59;;
64996;Laerm;51545;51.568;6.998;2023-07-08T14:11:35;43.85;34.98;50.77;;
64996;Laerm;51545;51.568;6.998;2023-07-08T14:14:01;39.25;33.89;50.37;;
64996;Laerm;51545;51.568;6.998;2023-07-08T14:16:28;36.90;32.31;53.86;;
64996;Laerm;51545;51.568;6.998;2023-07-08T14:19:00;36.40;32.39;51.10;;
64996;Laerm;51545;51.568;6.998;2023-07-08T14:21:29;36.19;31.52;45.28;;
64996;Laerm;51545;51.568;6.998;2023-07-08T14:23:54;36.88;31.50;47.67;;
64996;Laerm;51545;51.568;6.998;2023-07-08T14:26:20;36.76;32.28;43.29;;
64996;Laerm;51545;51.568;6.998;2023-07-08T14:28:46;37.40;33.11;47.77;;
64996;Laerm;51545;51.568;6.998;2023-07-08T14:31:15;41.86;34.70;57.31;;
64996;Laerm;51545;51.568;6.998;2023-07-08T14:33:43;38.30;33.47;55.87;;
64996;Laerm;51545;51.568;6.998;2023-07-08T14:36:12;45.02;33.64;73.60;;
64996;Laerm;51545;51.568;6.998;2023-07-08T14:38:39;51.78;33.30;82.19;;
64996;Laerm;51545;51.568;6.998;2023-07-08T14:41:05;37.45;32.83;48.35;;
64996;Laerm;51545;51.568;6.998;2023-07-08T14:43:31;36.69;32.70;52.70;;
64996;Laerm;51545;51.568;6.998;2023-07-08T14:46:01;36.65;32.76;49.45;;
64996;Laerm;51545;51.568;6.998;2023-07-08T14:48:29;39.73;31.56;55.40;;
64996;Laerm;51545;51.568;6.998;2023-07-08T14:50:54;37.28;32.83;51.28;;
64996;Laerm;51545;51.568;6.998;2023-07-08T14:53:20;39.55;32.38;52.70;;